createdAt,value
2022-10-09T00:00:20.232Z,26.20
2022-10-09T00:03:12.444Z,26.30
2022-10-09T00:05:45.108Z,24.40
2022-10-09T00:08:17.300Z,22.60
2022-10-09T00:10:49.903Z,31.20
2022-10-09T00:13:22.455Z,29.10
2022-10-09T00:15:54.653Z,28.40
2022-10-09T00:18:26.830Z,28.10
2022-10-09T00:20:59.415Z,28.70
2022-10-09T00:23:32.579Z,28.20
2022-10-09T00:26:05.155Z,32.50
2022-10-09T00:28:38.860Z,23.80
2022-10-09T00:31:13.063Z,25.20
2022-10-09T00:33:45.638Z,24.70
2022-10-09T00:36:20.071Z,27.90
2022-10-09T00:38:53.103Z,25.40
2022-10-09T00:41:28.674Z,22.60
2022-10-09T00:44:03.327Z,22.00
2022-10-09T00:46:46.474Z,22.00
2022-10-09T00:49:26.464Z,24.10
2022-10-09T00:52:05.400Z,23.00
2022-10-09T00:54:41.864Z,24.50
2022-10-09T00:57:14.506Z,23.90
2022-10-09T00:59:47.133Z,21.90
2022-10-09T01:02:19.370Z,22.70
2022-10-09T01:04:51.588Z,20.30
2022-10-09T01:07:36.733Z,19.90
2022-10-09T01:10:18.754Z,21.40
2022-10-09T01:12:56.448Z,19.20
2022-10-09T01:15:32.827Z,17.90
2022-10-09T01:18:13.155Z,16.90
2022-10-09T01:20:51.085Z,16.70
2022-10-09T01:23:50.384Z,18.40
2022-10-09T01:26:36.172Z,15.90
2022-10-09T01:29:11.944Z,15.10
2022-10-09T01:34:18.896Z,17.50
2022-10-09T01:36:52.819Z,18.00
2022-10-09T01:39:26.725Z,17.80
2022-10-09T01:41:59.485Z,18.00
2022-10-09T01:44:33.754Z,21.50
2022-10-09T01:47:06.595Z,17.50
2022-10-09T01:49:48.704Z,17.50
2022-10-09T01:52:41.493Z,17.00
2022-10-09T01:55:35.620Z,19.00
2022-10-09T01:58:16.819Z,19.70
2022-10-09T02:00:53.748Z,16.40
2022-10-09T02:03:28.632Z,17.80
2022-10-09T02:06:02.357Z,17.50
2022-10-09T02:08:36.208Z,17.60
2022-10-09T02:11:10.990Z,16.60
2022-10-09T02:13:45.044Z,16.20
2022-10-09T02:16:22.662Z,16.30
2022-10-09T02:18:59.784Z,17.00
2022-10-09T02:21:39.250Z,16.30
2022-10-09T02:24:15.817Z,15.70
2022-10-09T02:26:48.502Z,17.00
2022-10-09T02:29:21.343Z,15.30
2022-10-09T02:31:53.875Z,16.40
2022-10-09T02:34:26.403Z,14.10
2022-10-09T02:36:58.544Z,16.20
2022-10-09T02:39:30.794Z,16.20
2022-10-09T02:42:03.026Z,18.50
2022-10-09T02:44:35.354Z,17.70
2022-10-09T02:47:07.597Z,19.10
2022-10-09T02:49:39.955Z,15.90
2022-10-09T02:52:12.356Z,15.30
2022-10-09T02:54:44.545Z,16.10
2022-10-09T02:57:16.810Z,16.80
2022-10-09T02:59:49.058Z,14.70
2022-10-09T03:02:21.588Z,14.80
2022-10-09T03:04:54.048Z,16.60
2022-10-09T03:07:26.393Z,16.50
2022-10-09T03:09:58.995Z,16.00
2022-10-09T03:12:31.220Z,16.60
2022-10-09T03:15:03.419Z,16.20
2022-10-09T03:17:35.590Z,16.80
2022-10-09T03:20:09.137Z,17.80
2022-10-09T03:22:41.355Z,14.90
2022-10-09T03:25:13.733Z,14.70
2022-10-09T03:27:46.199Z,16.60
2022-10-09T03:30:18.639Z,16.00
2022-10-09T03:32:51.119Z,16.00
2022-10-09T03:35:23.734Z,17.30
2022-10-09T03:37:55.981Z,17.70
2022-10-09T03:40:28.198Z,16.20
2022-10-09T03:43:00.438Z,14.80
2022-10-09T03:45:32.753Z,15.90
2022-10-09T03:48:04.964Z,15.90
2022-10-09T03:50:38.369Z,16.40
2022-10-09T03:53:12.217Z,14.80
2022-10-09T03:55:44.891Z,14.10
2022-10-09T03:58:17.161Z,14.40
2022-10-09T04:00:50.789Z,13.80
2022-10-09T04:03:23.458Z,16.60
2022-10-09T04:05:55.664Z,15.70
2022-10-09T04:08:28.335Z,14.60
2022-10-09T04:11:01.666Z,15.40
2022-10-09T04:13:33.931Z,14.80
2022-10-09T04:16:06.800Z,15.40
2022-10-09T04:18:39.573Z,17.00
2022-10-09T04:21:13.238Z,14.70
2022-10-09T04:23:45.420Z,16.70
2022-10-09T04:26:17.687Z,16.50
2022-10-09T04:28:49.970Z,18.30
2022-10-09T04:31:22.242Z,15.70
2022-10-09T04:33:57.561Z,17.80
2022-10-09T04:36:29.721Z,16.00
2022-10-09T04:39:01.975Z,15.70
2022-10-09T04:41:38.109Z,14.90
2022-10-09T04:44:10.824Z,13.30
2022-10-09T04:46:43.466Z,15.80
2022-10-09T04:49:16.428Z,13.00
2022-10-09T04:51:48.611Z,13.70
2022-10-09T04:54:20.908Z,14.60
2022-10-09T04:56:53.124Z,12.00
2022-10-09T04:59:25.333Z,11.30
2022-10-09T05:01:57.600Z,13.10
2022-10-09T05:04:30.072Z,12.40
2022-10-09T05:07:02.364Z,14.60
2022-10-09T05:09:34.826Z,12.90
2022-10-09T05:12:07.353Z,19.10
2022-10-09T05:14:39.660Z,13.10
2022-10-09T05:17:14.629Z,16.30
2022-10-09T05:19:47.396Z,16.80
2022-10-09T05:22:19.621Z,15.50
2022-10-09T05:24:51.847Z,15.90
2022-10-09T05:27:24.035Z,17.30
2022-10-09T05:29:56.268Z,18.10
2022-10-09T05:32:28.429Z,12.80
2022-10-09T05:35:00.605Z,14.90
2022-10-09T05:37:32.808Z,13.10
2022-10-09T05:40:05.188Z,16.90
2022-10-09T05:42:37.460Z,13.20
2022-10-09T05:45:11.762Z,12.70
2022-10-09T05:47:43.936Z,14.60
2022-10-09T05:50:16.173Z,12.00
2022-10-09T05:52:48.651Z,11.40
2022-10-09T05:55:21.156Z,10.90
2022-10-09T05:57:53.954Z,14.10
2022-10-09T06:00:26.276Z,10.20
2022-10-09T06:02:58.540Z,9.90
2022-10-09T06:05:30.746Z,10.70
2022-10-09T06:08:02.940Z,11.50
2022-10-09T06:10:35.207Z,11.30
2022-10-09T06:13:07.412Z,12.60
2022-10-09T06:15:39.585Z,13.00
2022-10-09T06:18:11.743Z,13.60
2022-10-09T06:20:54.067Z,11.60
2022-10-09T06:23:26.528Z,11.50
2022-10-09T06:26:00.678Z,11.50
2022-10-09T06:28:35.076Z,12.60
2022-10-09T06:31:09.608Z,12.10
2022-10-09T06:33:43.483Z,10.90
2022-10-09T06:36:17.823Z,11.80
2022-10-09T06:38:50.371Z,10.30
2022-10-09T06:41:24.357Z,14.00
2022-10-09T06:43:58.862Z,12.00
2022-10-09T06:46:32.952Z,10.90
2022-10-09T06:49:06.021Z,11.80
2022-10-09T06:51:38.664Z,9.90
2022-10-09T06:54:14.516Z,9.60
2022-10-09T06:56:47.385Z,10.90
2022-10-09T06:59:19.723Z,9.10
2022-10-09T07:01:51.971Z,10.00
2022-10-09T07:04:24.188Z,9.90
2022-10-09T07:06:56.763Z,9.20
2022-10-09T07:09:31.261Z,9.70
2022-10-09T07:12:03.412Z,9.30
2022-10-09T07:14:35.593Z,9.40
2022-10-09T07:17:07.777Z,9.00
2022-10-09T07:19:40.024Z,9.10
2022-10-09T07:22:12.211Z,7.80
2022-10-09T07:24:44.449Z,9.40
2022-10-09T07:27:16.584Z,8.20
2022-10-09T07:29:48.854Z,10.70
2022-10-09T07:32:21.104Z,9.80
2022-10-09T07:34:53.341Z,8.50
2022-10-09T07:37:25.533Z,8.70
2022-10-09T07:39:57.690Z,10.60
2022-10-09T07:42:29.927Z,9.90
2022-10-09T07:45:02.162Z,10.40
2022-10-09T07:47:34.455Z,10.00
2022-10-09T07:50:07.776Z,10.60
2022-10-09T07:52:39.952Z,8.80
2022-10-09T07:55:12.484Z,9.30
2022-10-09T07:57:44.864Z,8.30
2022-10-09T08:00:17.834Z,9.40
2022-10-09T08:02:50.318Z,11.50
2022-10-09T08:05:22.719Z,10.30
2022-10-09T08:07:54.908Z,8.30
2022-10-09T08:10:27.232Z,9.70
2022-10-09T08:12:59.671Z,9.60
2022-10-09T08:15:32.226Z,8.80
2022-10-09T08:18:04.440Z,7.60
2022-10-09T08:20:36.615Z,9.00
2022-10-09T08:23:09.177Z,8.80
2022-10-09T08:25:41.568Z,9.10
2022-10-09T08:28:13.858Z,8.30
2022-10-09T08:30:46.135Z,8.60
2022-10-09T08:33:21.999Z,7.80
2022-10-09T08:35:55.176Z,8.10
2022-10-09T08:38:46.225Z,8.50
2022-10-09T08:41:30.982Z,6.40
2022-10-09T08:44:07.701Z,7.70
2022-10-09T08:46:51.319Z,10.70
2022-10-09T08:49:29.790Z,7.40
2022-10-09T08:52:08.275Z,9.20
2022-10-09T08:54:42.533Z,8.30
2022-10-09T08:57:16.978Z,8.50
2022-10-09T08:59:49.347Z,9.00
2022-10-09T09:02:34.918Z,7.40
2022-10-09T09:05:29.328Z,8.60
2022-10-09T09:08:08.507Z,8.00
2022-10-09T09:10:48.277Z,9.10
2022-10-09T09:13:41.109Z,9.20
2022-10-09T09:16:20.545Z,10.70
2022-10-09T09:19:05.977Z,8.80
2022-10-09T09:21:48.784Z,9.10
2022-10-09T09:24:26.077Z,7.80
2022-10-09T09:27:04.349Z,9.90
2022-10-09T09:29:44.485Z,8.40
2022-10-09T09:32:22.650Z,8.20
2022-10-09T09:35:02.639Z,10.30
2022-10-09T09:37:34.920Z,11.10
2022-10-09T09:43:17.457Z,9.60
2022-10-09T09:45:53.427Z,8.00
2022-10-09T09:48:34.800Z,7.50
2022-10-09T09:51:28.081Z,10.20
2022-10-09T09:54:05.060Z,7.80
2022-10-09T09:57:10.220Z,8.90
2022-10-09T09:59:37.941Z,8.20
2022-10-09T10:02:18.358Z,8.40
2022-10-09T10:04:56.705Z,9.70
2022-10-09T10:07:34.512Z,8.80
2022-10-09T10:10:17.153Z,8.60
2022-10-09T10:12:58.396Z,9.00
2022-10-09T10:15:32.608Z,7.20
2022-10-09T10:18:07.433Z,8.10
2022-10-09T10:20:48.733Z,9.20
2022-10-09T10:23:35.691Z,9.90
2022-10-09T10:26:15.985Z,8.60
2022-10-09T10:28:55.209Z,7.90
2022-10-09T10:31:42.636Z,8.50
2022-10-09T10:34:21.435Z,9.00
2022-10-09T10:37:02.565Z,8.50
2022-10-09T10:39:42.813Z,7.30
2022-10-09T10:42:20.816Z,6.70
2022-10-09T10:44:59.594Z,10.00
2022-10-09T10:47:36.622Z,6.30
2022-10-09T10:50:15.952Z,7.80
2022-10-09T10:53:00.460Z,7.60
2022-10-09T10:55:43.791Z,6.10
2022-10-09T10:58:25.901Z,7.10
2022-10-09T11:01:13.614Z,5.50
2022-10-09T11:04:04.837Z,5.90
2022-10-09T11:06:46.587Z,7.20
2022-10-09T11:09:28.885Z,6.30
2022-10-09T11:12:19.580Z,4.90
2022-10-09T11:15:06.307Z,6.70
2022-10-09T11:17:48.281Z,5.70
2022-10-09T11:20:45.727Z,6.50
2022-10-09T11:23:26.930Z,6.10
2022-10-09T11:26:07.483Z,6.10
2022-10-09T11:28:45.055Z,7.00
2022-10-09T11:31:21.408Z,5.80
2022-10-09T11:34:00.160Z,6.50
2022-10-09T11:36:39.969Z,6.50
2022-10-09T11:39:18.375Z,7.20
2022-10-09T11:41:52.951Z,6.00
2022-10-09T11:44:39.813Z,5.80
2022-10-09T11:47:22.932Z,6.10
2022-10-09T11:50:07.867Z,4.90
2022-10-09T11:52:49.009Z,7.10
2022-10-09T11:55:24.057Z,5.50
2022-10-09T11:57:56.759Z,6.50
2022-10-09T12:00:39.356Z,6.30
2022-10-09T12:03:33.746Z,5.40
2022-10-09T12:06:13.395Z,5.30
2022-10-09T12:08:56.327Z,5.10
2022-10-09T12:11:29.914Z,6.50
2022-10-09T12:14:03.957Z,5.50
2022-10-09T12:16:43.067Z,5.90
2022-10-09T12:19:23.936Z,4.60
2022-10-09T12:22:04.278Z,5.40
2022-10-09T12:24:42.492Z,6.00
2022-10-09T12:27:22.240Z,5.30
2022-10-09T12:29:57.936Z,6.10
2022-10-09T12:32:33.631Z,6.40
2022-10-09T12:35:19.632Z,5.10
2022-10-09T12:37:51.835Z,6.80
2022-10-09T12:40:27.571Z,5.10
2022-10-09T12:43:01.879Z,6.10
2022-10-09T12:45:34.521Z,5.60
2022-10-09T12:48:15.024Z,6.90
2022-10-09T12:50:47.192Z,5.30
2022-10-09T12:53:22.626Z,4.70
2022-10-09T12:58:31.385Z,5.40
2022-10-09T13:01:07.849Z,4.30
2022-10-09T13:03:41.948Z,6.30
2022-10-09T13:06:19.556Z,5.30
2022-10-09T13:08:58.974Z,4.70
2022-10-09T13:11:38.126Z,5.10
2022-10-09T13:14:24.478Z,6.10
2022-10-09T13:16:56.971Z,5.20
2022-10-09T13:19:30.804Z,5.60
2022-10-09T13:22:17.363Z,6.80
2022-10-09T13:24:51.627Z,6.00
2022-10-09T13:27:25.512Z,5.50
2022-10-09T13:29:57.770Z,6.10
2022-10-09T13:32:30.026Z,5.30
2022-10-09T13:35:02.259Z,7.20
2022-10-09T13:37:34.611Z,5.00
2022-10-09T13:40:08.816Z,5.60
2022-10-09T13:42:41.129Z,6.20
2022-10-09T13:45:14.526Z,5.60
2022-10-09T13:47:47.068Z,4.40
2022-10-09T13:50:19.862Z,5.50
2022-10-09T13:52:52.141Z,5.20
2022-10-09T13:55:24.469Z,4.70
2022-10-09T13:57:56.627Z,6.00
2022-10-09T14:00:29.545Z,5.10
2022-10-09T14:03:01.727Z,5.40
2022-10-09T14:05:33.878Z,5.60
2022-10-09T14:08:06.849Z,6.20
2022-10-09T14:10:42.121Z,5.60
2022-10-09T14:13:14.666Z,3.70
2022-10-09T14:15:46.854Z,4.70
2022-10-09T14:18:19.101Z,5.70
2022-10-09T14:20:52.126Z,6.90
2022-10-09T14:23:24.299Z,4.90
2022-10-09T14:25:56.491Z,5.90
2022-10-09T14:28:28.791Z,5.60
2022-10-09T14:31:01.156Z,4.30
2022-10-09T14:33:33.491Z,5.50
2022-10-09T14:36:10.526Z,6.00
2022-10-09T14:38:44.002Z,5.10
2022-10-09T14:41:18.087Z,6.00
2022-10-09T14:43:56.885Z,5.10
2022-10-09T14:46:33.876Z,5.00
2022-10-09T14:49:08.407Z,6.30
2022-10-09T14:51:42.101Z,5.20
2022-10-09T14:54:15.274Z,6.40
2022-10-09T14:56:47.619Z,4.70
2022-10-09T14:59:19.901Z,4.50
2022-10-09T15:01:52.031Z,5.20
2022-10-09T15:04:24.262Z,4.60
2022-10-09T15:06:56.428Z,5.20
2022-10-09T15:09:28.785Z,6.80
2022-10-09T15:12:00.960Z,4.70
2022-10-09T15:14:33.277Z,5.40
2022-10-09T15:17:05.475Z,6.00
2022-10-09T15:19:37.875Z,4.80
2022-10-09T15:22:10.230Z,6.50
2022-10-09T15:24:42.744Z,5.70
2022-10-09T15:27:15.005Z,7.10
2022-10-09T15:29:47.260Z,6.20
2022-10-09T15:32:19.530Z,5.80
2022-10-09T15:34:51.939Z,6.90
2022-10-09T15:37:24.225Z,8.50
2022-10-09T15:39:56.566Z,7.90
2022-10-09T15:42:28.771Z,7.30
2022-10-09T15:45:00.963Z,6.90
2022-10-09T15:47:50.376Z,7.90
2022-10-09T15:50:23.393Z,7.60
2022-10-09T15:52:57.072Z,7.80
2022-10-09T15:55:29.525Z,9.70
2022-10-09T15:58:01.804Z,6.90
2022-10-09T16:00:37.247Z,7.70
2022-10-09T16:03:11.085Z,8.40
2022-10-09T16:05:45.050Z,9.20
2022-10-09T16:08:19.041Z,7.20
2022-10-09T16:10:52.278Z,8.40
2022-10-09T16:13:25.470Z,7.10
2022-10-09T16:15:58.541Z,8.80
2022-10-09T16:18:30.727Z,7.50
2022-10-09T16:21:08.703Z,7.90
2022-10-09T16:23:40.932Z,9.50
2022-10-09T16:26:15.127Z,7.70
2022-10-09T16:28:47.839Z,8.40
2022-10-09T16:31:25.034Z,8.70
2022-10-09T16:33:57.915Z,6.50
2022-10-09T16:36:30.392Z,9.20
2022-10-09T16:39:03.136Z,9.20
2022-10-09T16:41:39.552Z,7.40
2022-10-09T16:44:17.180Z,8.50
2022-10-09T16:46:49.481Z,8.10
2022-10-09T16:49:24.291Z,9.30
2022-10-09T16:51:57.444Z,8.50
2022-10-09T16:54:29.636Z,7.80
2022-10-09T16:57:04.757Z,8.20
2022-10-09T16:59:37.371Z,7.30
2022-10-09T17:02:11.743Z,8.50
2022-10-09T17:04:44.469Z,7.80
2022-10-09T17:07:16.769Z,7.80
2022-10-09T17:09:49.049Z,6.90
2022-10-09T17:12:22.957Z,6.60
2022-10-09T17:14:57.479Z,7.20
2022-10-09T17:17:29.744Z,6.90
2022-10-09T17:20:01.954Z,7.70
2022-10-09T17:22:34.161Z,7.50
2022-10-09T17:25:07.242Z,7.80
2022-10-09T17:27:39.502Z,5.80
2022-10-09T17:30:13.927Z,7.20
2022-10-09T17:32:46.211Z,7.20
2022-10-09T17:35:18.667Z,6.80
2022-10-09T17:37:50.846Z,7.00
2022-10-09T17:40:24.861Z,7.30
2022-10-09T17:43:00.040Z,7.20
2022-10-09T17:45:35.828Z,8.40
2022-10-09T17:48:11.545Z,7.00
2022-10-09T17:50:50.986Z,7.60
2022-10-09T17:53:23.632Z,6.00
2022-10-09T17:55:58.339Z,8.30
2022-10-09T17:58:30.587Z,9.00
2022-10-09T18:01:08.226Z,8.60
2022-10-09T18:03:40.494Z,7.70
2022-10-09T18:06:17.288Z,10.10
2022-10-09T18:08:49.664Z,10.30
2022-10-09T18:11:23.216Z,9.20
2022-10-09T18:13:55.935Z,7.80
2022-10-09T18:16:35.923Z,6.50
2022-10-09T18:19:13.225Z,7.30
2022-10-09T18:21:48.189Z,6.90
2022-10-09T18:24:20.792Z,8.70
2022-10-09T18:26:53.003Z,9.30
2022-10-09T18:29:25.431Z,7.50
2022-10-09T18:31:58.065Z,8.40
2022-10-09T18:34:30.268Z,6.10
2022-10-09T18:37:02.520Z,7.80
2022-10-09T18:39:34.684Z,7.30
2022-10-09T18:42:07.518Z,6.50
2022-10-09T18:44:41.878Z,7.60
2022-10-09T18:47:18.340Z,6.80
2022-10-09T18:49:53.839Z,6.90
2022-10-09T18:52:26.416Z,7.60
2022-10-09T18:54:59.906Z,8.00
2022-10-09T18:57:33.535Z,9.10
2022-10-09T19:00:06.471Z,8.60
2022-10-09T19:05:12.359Z,10.30
2022-10-09T19:07:44.608Z,10.10
2022-10-09T19:10:16.880Z,11.10
2022-10-09T19:12:50.328Z,12.20
2022-10-09T19:15:22.872Z,10.70
2022-10-09T19:17:55.144Z,11.70
2022-10-09T19:20:29.194Z,12.60
2022-10-09T19:23:01.391Z,12.50
2022-10-09T19:25:33.585Z,12.90
2022-10-09T19:28:05.789Z,12.70
2022-10-09T19:30:40.097Z,12.50
2022-10-09T19:33:12.641Z,12.50
2022-10-09T19:35:53.033Z,11.40
2022-10-09T19:38:26.932Z,13.30
2022-10-09T19:41:03.812Z,12.80
2022-10-09T19:43:36.343Z,12.30
2022-10-09T19:46:10.179Z,12.60
2022-10-09T19:48:42.350Z,10.60
2022-10-09T19:51:16.670Z,11.60
2022-10-09T19:53:50.099Z,10.60
2022-10-09T19:56:26.263Z,9.70
2022-10-09T19:58:59.524Z,8.90
2022-10-09T20:01:32.912Z,10.40
2022-10-09T20:04:08.893Z,9.20
2022-10-09T20:09:13.655Z,7.20
2022-10-09T20:11:46.066Z,9.50
2022-10-09T20:14:18.381Z,8.50
2022-10-09T20:16:50.535Z,8.20
2022-10-09T20:19:23.252Z,8.00
2022-10-09T20:21:55.415Z,9.30
2022-10-09T20:24:27.679Z,6.90
2022-10-09T20:27:00.132Z,7.00
2022-10-09T20:29:32.399Z,7.40
2022-10-09T20:32:04.621Z,6.60
2022-10-09T20:34:36.805Z,6.20
2022-10-09T20:37:08.912Z,6.30
2022-10-09T20:39:41.124Z,5.80
2022-10-09T20:42:13.268Z,6.80
2022-10-09T20:44:45.537Z,8.10
2022-10-09T20:47:17.819Z,6.40
2022-10-09T20:49:50.994Z,5.90
2022-10-09T20:52:23.154Z,6.60
2022-10-09T20:54:55.403Z,5.80
2022-10-09T20:57:27.713Z,6.90
2022-10-09T21:00:00.118Z,7.00
2022-10-09T21:02:32.523Z,6.70
2022-10-09T21:05:04.774Z,7.10
2022-10-09T21:07:36.955Z,6.20
2022-10-09T21:10:10.980Z,6.70
2022-10-09T21:12:43.383Z,6.20
2022-10-09T21:15:15.543Z,6.00
2022-10-09T21:17:47.713Z,6.90
2022-10-09T21:20:20.118Z,6.60
2022-10-09T21:22:52.652Z,7.00
2022-10-09T21:25:25.096Z,7.10
2022-10-09T21:27:57.283Z,7.70
2022-10-09T21:30:30.780Z,6.50
2022-10-09T21:33:03.007Z,6.70
2022-10-09T21:35:39.303Z,9.00
2022-10-09T21:38:14.355Z,8.10
2022-10-09T21:40:47.334Z,6.00
2022-10-09T21:43:20.007Z,7.50
2022-10-09T21:45:53.219Z,8.20
2022-10-09T21:48:25.653Z,7.80
2022-10-09T21:50:58.264Z,7.10
2022-10-09T21:53:30.744Z,7.80
2022-10-09T21:56:05.669Z,6.70
2022-10-09T21:58:38.336Z,6.60
2022-10-09T22:01:10.904Z,6.60
2022-10-09T22:03:43.677Z,5.60
2022-10-09T22:06:19.090Z,7.30
2022-10-09T22:08:51.726Z,7.60
2022-10-09T22:11:23.917Z,7.50
2022-10-09T22:13:57.859Z,8.80
2022-10-09T22:16:30.227Z,8.00
2022-10-09T22:19:03.114Z,7.50
2022-10-09T22:21:35.321Z,7.50
2022-10-09T22:24:07.705Z,8.40
2022-10-09T22:26:39.821Z,7.40
2022-10-09T22:29:11.942Z,7.50
2022-10-09T22:31:44.096Z,7.40
2022-10-09T22:34:16.534Z,7.20
2022-10-09T22:36:48.957Z,7.20
2022-10-09T22:39:21.144Z,7.10
2022-10-09T22:41:53.445Z,8.70
2022-10-09T22:44:25.586Z,6.80
2022-10-09T22:46:57.793Z,6.50
2022-10-09T22:49:29.883Z,6.20
2022-10-09T22:52:02.147Z,7.10
2022-10-09T22:54:34.327Z,7.00
2022-10-09T22:57:06.491Z,6.80
2022-10-09T22:59:38.647Z,9.00
2022-10-09T23:02:10.796Z,7.70
2022-10-09T23:04:42.957Z,5.40
2022-10-09T23:07:15.122Z,5.70
2022-10-09T23:09:47.296Z,7.10
2022-10-09T23:12:19.491Z,6.80
2022-10-09T23:14:51.984Z,7.50
2022-10-09T23:17:24.156Z,5.80
2022-10-09T23:19:56.322Z,10.10
2022-10-09T23:22:28.447Z,7.50
2022-10-09T23:25:00.787Z,7.20
2022-10-09T23:27:33.025Z,7.20
2022-10-09T23:30:05.491Z,7.90
2022-10-09T23:32:37.671Z,6.10
2022-10-09T23:35:10.959Z,7.20
2022-10-09T23:37:43.120Z,6.10
2022-10-09T23:40:15.391Z,7.60
2022-10-09T23:42:47.982Z,5.30
2022-10-09T23:45:20.367Z,6.80
2022-10-09T23:47:52.593Z,5.30
2022-10-09T23:50:24.741Z,5.80
2022-10-09T23:52:56.892Z,8.30
2022-10-09T23:55:29.111Z,4.50
2022-10-09T23:58:01.403Z,5.00
